sensor_id;sensor_type;location;lat;lon;timestamp;temperature;humidity
75126;DHT22;63699;45.442;11.510;2022-12-29T00:01:24;20.30;68.50
75126;DHT22;63699;45.442;11.510;2022-12-29T00:03:50;20.30;68.50
75126;DHT22;63699;45.442;11.510;2022-12-29T00:06:16;20.30;68.50
75126;DHT22;63699;45.442;11.510;2022-12-29T00:08:41;20.30;68.50
75126;DHT22;63699;45.442;11.510;2022-12-29T00:11:22;20.30;68.50
75126;DHT22;63699;45.442;11.510;2022-12-29T00:13:48;20.30;68.50
75126;DHT22;63699;45.442;11.510;2022-12-29T00:16:34;20.20;68.50
75126;DHT22;63699;45.442;11.510;2022-12-29T00:19:00;20.30;68.60
75126;DHT22;63699;45.442;11.510;2022-12-29T00:21:27;20.30;68.50
75126;DHT22;63699;45.442;11.510;2022-12-29T00:24:19;20.20;68.50
75126;DHT22;63699;45.442;11.510;2022-12-29T00:27:11;20.20;68.60
75126;DHT22;63699;45.442;11.510;2022-12-29T00:29:56;20.20;68.70
75126;DHT22;63699;45.442;11.510;2022-12-29T00:32:40;20.20;68.90
75126;DHT22;63699;45.442;11.510;2022-12-29T00:35:51;20.20;68.90
75126;DHT22;63699;45.442;11.510;2022-12-29T00:38:18;20.20;69.00
75126;DHT22;63699;45.442;11.510;2022-12-29T00:41:03;20.20;69.00
75126;DHT22;63699;45.442;11.510;2022-12-29T00:43:46;20.20;69.00
75126;DHT22;63699;45.442;11.510;2022-12-29T00:46:34;20.20;69.00
75126;DHT22;63699;45.442;11.510;2022-12-29T00:49:01;20.20;69.00
75126;DHT22;63699;45.442;11.510;2022-12-29T00:51:46;20.20;69.00
75126;DHT22;63699;45.442;11.510;2022-12-29T00:54:12;20.30;69.10
75126;DHT22;63699;45.442;11.510;2022-12-29T00:56:38;20.20;69.10
75126;DHT22;63699;45.442;11.510;2022-12-29T00:59:07;20.20;69.10
75126;DHT22;63699;45.442;11.510;2022-12-29T01:01:34;20.30;69.10
75126;DHT22;63699;45.442;11.510;2022-12-29T01:03:59;20.30;69.10
75126;DHT22;63699;45.442;11.510;2022-12-29T01:06:25;20.30;69.10
75126;DHT22;63699;45.442;11.510;2022-12-29T01:08:51;20.30;69.10
75126;DHT22;63699;45.442;11.510;2022-12-29T01:11:37;20.30;69.10
75126;DHT22;63699;45.442;11.510;2022-12-29T01:14:04;20.30;69.10
75126;DHT22;63699;45.442;11.510;2022-12-29T01:16:29;20.30;69.10
75126;DHT22;63699;45.442;11.510;2022-12-29T01:18:55;20.30;69.10
75126;DHT22;63699;45.442;11.510;2022-12-29T01:21:21;20.30;69.10
75126;DHT22;63699;45.442;11.510;2022-12-29T01:23:46;20.30;69.10
75126;DHT22;63699;45.442;11.510;2022-12-29T01:26:14;20.30;69.10
75126;DHT22;63699;45.442;11.510;2022-12-29T01:28:40;20.30;69.10
75126;DHT22;63699;45.442;11.510;2022-12-29T01:31:10;20.30;69.00
75126;DHT22;63699;45.442;11.510;2022-12-29T01:33:36;20.30;69.10
75126;DHT22;63699;45.442;11.510;2022-12-29T01:36:06;20.30;69.00
75126;DHT22;63699;45.442;11.510;2022-12-29T01:38:35;20.30;69.00
75126;DHT22;63699;45.442;11.510;2022-12-29T01:41:01;20.30;69.00
75126;DHT22;63699;45.442;11.510;2022-12-29T01:46:37;20.30;69.00
75126;DHT22;63699;45.442;11.510;2022-12-29T01:49:26;20.30;69.00
75126;DHT22;63699;45.442;11.510;2022-12-29T01:51:59;20.30;69.00
75126;DHT22;63699;45.442;11.510;2022-12-29T01:57:04;20.30;69.00
75126;DHT22;63699;45.442;11.510;2022-12-29T01:59:36;20.30;69.00
75126;DHT22;63699;45.442;11.510;2022-12-29T02:02:04;20.30;69.00
75126;DHT22;63699;45.442;11.510;2022-12-29T02:04:32;20.40;69.10
75126;DHT22;63699;45.442;11.510;2022-12-29T02:07:02;20.30;69.00
75126;DHT22;63699;45.442;11.510;2022-12-29T02:09:29;20.30;69.10
75126;DHT22;63699;45.442;11.510;2022-12-29T02:11:56;20.40;69.10
75126;DHT22;63699;45.442;11.510;2022-12-29T02:14:22;20.40;69.10
75126;DHT22;63699;45.442;11.510;2022-12-29T02:22:24;20.40;69.10
75126;DHT22;63699;45.442;11.510;2022-12-29T02:30:12;20.30;69.10
75126;DHT22;63699;45.442;11.510;2022-12-29T02:32:52;20.30;69.00
75126;DHT22;63699;45.442;11.510;2022-12-29T02:41:05;20.30;69.10
75126;DHT22;63699;45.442;11.510;2022-12-29T02:43:39;20.30;69.10
75126;DHT22;63699;45.442;11.510;2022-12-29T02:51:29;20.30;69.20
75126;DHT22;63699;45.442;11.510;2022-12-29T02:53:57;20.30;69.10
75126;DHT22;63699;45.442;11.510;2022-12-29T02:56:41;20.30;69.20
75126;DHT22;63699;45.442;11.510;2022-12-29T02:59:08;20.30;69.20
75126;DHT22;63699;45.442;11.510;2022-12-29T03:01:44;20.30;69.20
75126;DHT22;63699;45.442;11.510;2022-12-29T03:04:39;20.30;69.20
75126;DHT22;63699;45.442;11.510;2022-12-29T03:13:02;20.30;69.20
75126;DHT22;63699;45.442;11.510;2022-12-29T03:16:01;20.30;69.20
75126;DHT22;63699;45.442;11.510;2022-12-29T03:21:07;20.30;69.20
75126;DHT22;63699;45.442;11.510;2022-12-29T03:23:35;20.30;69.20
75126;DHT22;63699;45.442;11.510;2022-12-29T03:26:05;20.30;69.20
75126;DHT22;63699;45.442;11.510;2022-12-29T03:28:38;20.30;69.20
75126;DHT22;63699;45.442;11.510;2022-12-29T03:31:06;20.30;69.20
75126;DHT22;63699;45.442;11.510;2022-12-29T03:33:33;20.30;69.20
75126;DHT22;63699;45.442;11.510;2022-12-29T03:36:03;20.30;69.20
75126;DHT22;63699;45.442;11.510;2022-12-29T03:38:43;20.30;69.20
75126;DHT22;63699;45.442;11.510;2022-12-29T03:41:14;20.30;69.20
75126;DHT22;63699;45.442;11.510;2022-12-29T03:43:41;20.30;69.20
75126;DHT22;63699;45.442;11.510;2022-12-29T03:46:07;20.30;69.20
75126;DHT22;63699;45.442;11.510;2022-12-29T03:48:32;20.30;69.20
75126;DHT22;63699;45.442;11.510;2022-12-29T03:50:58;20.30;69.10
75126;DHT22;63699;45.442;11.510;2022-12-29T03:53:24;20.30;69.20
75126;DHT22;63699;45.442;11.510;2022-12-29T03:55:50;20.40;69.20
75126;DHT22;63699;45.442;11.510;2022-12-29T03:58:16;20.30;69.20
75126;DHT22;63699;45.442;11.510;2022-12-29T04:00:41;20.30;69.20
75126;DHT22;63699;45.442;11.510;2022-12-29T04:03:07;20.30;69.20
75126;DHT22;63699;45.442;11.510;2022-12-29T04:05:32;20.30;69.20
75126;DHT22;63699;45.442;11.510;2022-12-29T04:07:58;20.30;69.20
75126;DHT22;63699;45.442;11.510;2022-12-29T04:10:23;20.30;69.20
75126;DHT22;63699;45.442;11.510;2022-12-29T04:12:49;20.30;69.20
75126;DHT22;63699;45.442;11.510;2022-12-29T04:15:15;20.30;69.10
75126;DHT22;63699;45.442;11.510;2022-12-29T04:17:40;20.30;69.20
75126;DHT22;63699;45.442;11.510;2022-12-29T04:20:06;20.30;69.20
75126;DHT22;63699;45.442;11.510;2022-12-29T04:23:01;20.30;69.20
75126;DHT22;63699;45.442;11.510;2022-12-29T04:25:26;20.30;69.20
75126;DHT22;63699;45.442;11.510;2022-12-29T04:27:52;20.30;69.20
75126;DHT22;63699;45.442;11.510;2022-12-29T04:30:18;20.30;69.20
75126;DHT22;63699;45.442;11.510;2022-12-29T04:32:43;20.40;69.20
75126;DHT22;63699;45.442;11.510;2022-12-29T04:35:09;20.30;69.10
75126;DHT22;63699;45.442;11.510;2022-12-29T04:37:35;20.30;69.20
75126;DHT22;63699;45.442;11.510;2022-12-29T04:40:00;20.30;69.10
75126;DHT22;63699;45.442;11.510;2022-12-29T04:42:26;20.30;69.10
75126;DHT22;63699;45.442;11.510;2022-12-29T04:44:51;20.30;69.10
75126;DHT22;63699;45.442;11.510;2022-12-29T04:47:17;20.30;69.20
75126;DHT22;63699;45.442;11.510;2022-12-29T04:49:42;20.30;69.20
75126;DHT22;63699;45.442;11.510;2022-12-29T04:52:08;20.30;69.10
75126;DHT22;63699;45.442;11.510;2022-12-29T04:54:34;20.30;69.20
75126;DHT22;63699;45.442;11.510;2022-12-29T04:56:59;20.30;69.20
75126;DHT22;63699;45.442;11.510;2022-12-29T04:59:25;20.30;69.20
75126;DHT22;63699;45.442;11.510;2022-12-29T05:01:51;20.30;69.20
75126;DHT22;63699;45.442;11.510;2022-12-29T05:04:17;20.30;69.20
75126;DHT22;63699;45.442;11.510;2022-12-29T05:06:42;20.30;69.20
75126;DHT22;63699;45.442;11.510;2022-12-29T05:09:08;20.30;69.20
75126;DHT22;63699;45.442;11.510;2022-12-29T05:11:33;20.30;69.30
75126;DHT22;63699;45.442;11.510;2022-12-29T05:13:59;20.30;69.30
75126;DHT22;63699;45.442;11.510;2022-12-29T05:16:24;20.30;69.30
75126;DHT22;63699;45.442;11.510;2022-12-29T05:18:50;20.30;69.30
75126;DHT22;63699;45.442;11.510;2022-12-29T05:21:16;20.30;69.30
75126;DHT22;63699;45.442;11.510;2022-12-29T05:23:41;20.30;69.30
75126;DHT22;63699;45.442;11.510;2022-12-29T05:26:07;20.30;69.30
75126;DHT22;63699;45.442;11.510;2022-12-29T05:28:32;20.30;69.30
75126;DHT22;63699;45.442;11.510;2022-12-29T05:30:58;20.30;69.30
75126;DHT22;63699;45.442;11.510;2022-12-29T05:33:24;20.30;69.30
75126;DHT22;63699;45.442;11.510;2022-12-29T05:35:49;20.30;69.30
75126;DHT22;63699;45.442;11.510;2022-12-29T05:38:15;20.30;69.40
75126;DHT22;63699;45.442;11.510;2022-12-29T05:40:40;20.40;69.30
75126;DHT22;63699;45.442;11.510;2022-12-29T05:43:06;20.30;69.20
75126;DHT22;63699;45.442;11.510;2022-12-29T05:45:32;20.40;69.30
75126;DHT22;63699;45.442;11.510;2022-12-29T05:47:57;20.40;69.30
75126;DHT22;63699;45.442;11.510;2022-12-29T05:50:23;20.40;69.30
75126;DHT22;63699;45.442;11.510;2022-12-29T05:52:48;20.40;69.30
75126;DHT22;63699;45.442;11.510;2022-12-29T05:55:14;20.40;69.30
75126;DHT22;63699;45.442;11.510;2022-12-29T05:57:40;20.40;69.40
75126;DHT22;63699;45.442;11.510;2022-12-29T06:00:06;20.40;69.30
75126;DHT22;63699;45.442;11.510;2022-12-29T06:02:32;20.40;69.30
75126;DHT22;63699;45.442;11.510;2022-12-29T06:04:57;20.40;69.30
75126;DHT22;63699;45.442;11.510;2022-12-29T06:07:23;20.40;69.30
75126;DHT22;63699;45.442;11.510;2022-12-29T06:09:48;20.40;69.30
75126;DHT22;63699;45.442;11.510;2022-12-29T06:12:14;20.40;69.30
75126;DHT22;63699;45.442;11.510;2022-12-29T06:14:40;20.40;69.20
75126;DHT22;63699;45.442;11.510;2022-12-29T06:17:05;20.40;69.20
75126;DHT22;63699;45.442;11.510;2022-12-29T06:19:31;20.40;69.20
75126;DHT22;63699;45.442;11.510;2022-12-29T06:21:56;20.40;69.30
75126;DHT22;63699;45.442;11.510;2022-12-29T06:24:22;20.40;69.20
75126;DHT22;63699;45.442;11.510;2022-12-29T06:26:47;20.40;69.20
75126;DHT22;63699;45.442;11.510;2022-12-29T06:29:13;20.40;69.20
75126;DHT22;63699;45.442;11.510;2022-12-29T06:31:43;20.40;69.30
75126;DHT22;63699;45.442;11.510;2022-12-29T06:34:11;20.40;69.20
75126;DHT22;63699;45.442;11.510;2022-12-29T06:36:37;20.40;69.30
75126;DHT22;63699;45.442;11.510;2022-12-29T06:39:02;20.40;69.30
75126;DHT22;63699;45.442;11.510;2022-12-29T06:41:28;20.40;69.30
75126;DHT22;63699;45.442;11.510;2022-12-29T06:43:53;20.40;69.30
75126;DHT22;63699;45.442;11.510;2022-12-29T06:46:19;20.40;69.20
75126;DHT22;63699;45.442;11.510;2022-12-29T06:48:44;20.40;69.20
75126;DHT22;63699;45.442;11.510;2022-12-29T06:51:10;20.40;69.20
75126;DHT22;63699;45.442;11.510;2022-12-29T06:53:35;20.40;69.20
75126;DHT22;63699;45.442;11.510;2022-12-29T06:56:01;20.40;69.30
75126;DHT22;63699;45.442;11.510;2022-12-29T06:58:27;20.40;69.30
75126;DHT22;63699;45.442;11.510;2022-12-29T07:00:52;20.40;69.30
75126;DHT22;63699;45.442;11.510;2022-12-29T07:03:18;20.40;69.20
75126;DHT22;63699;45.442;11.510;2022-12-29T07:05:43;20.40;69.20
75126;DHT22;63699;45.442;11.510;2022-12-29T07:08:09;20.40;69.20
75126;DHT22;63699;45.442;11.510;2022-12-29T07:10:35;20.40;69.20
75126;DHT22;63699;45.442;11.510;2022-12-29T07:13:00;20.40;69.20
75126;DHT22;63699;45.442;11.510;2022-12-29T07:15:26;20.40;69.20
75126;DHT22;63699;45.442;11.510;2022-12-29T07:17:52;20.40;69.30
75126;DHT22;63699;45.442;11.510;2022-12-29T07:20:17;20.40;69.20
75126;DHT22;63699;45.442;11.510;2022-12-29T07:22:43;20.40;69.20
75126;DHT22;63699;45.442;11.510;2022-12-29T07:25:09;20.40;69.70
75126;DHT22;63699;45.442;11.510;2022-12-29T07:27:34;20.40;70.50
75126;DHT22;63699;45.442;11.510;2022-12-29T07:30:00;20.40;70.50
75126;DHT22;63699;45.442;11.510;2022-12-29T07:32:25;20.40;70.20
75126;DHT22;63699;45.442;11.510;2022-12-29T07:34:51;20.40;70.40
75126;DHT22;63699;45.442;11.510;2022-12-29T07:37:17;20.40;70.80
75126;DHT22;63699;45.442;11.510;2022-12-29T07:39:43;20.40;71.00
75126;DHT22;63699;45.442;11.510;2022-12-29T07:42:08;20.40;70.50
75126;DHT22;63699;45.442;11.510;2022-12-29T07:44:34;20.40;70.40
75126;DHT22;63699;45.442;11.510;2022-12-29T07:47:02;20.40;71.50
75126;DHT22;63699;45.442;11.510;2022-12-29T07:49:27;20.40;71.80
75126;DHT22;63699;45.442;11.510;2022-12-29T07:51:53;20.40;70.70
75126;DHT22;63699;45.442;11.510;2022-12-29T07:54:19;20.40;70.60
75126;DHT22;63699;45.442;11.510;2022-12-29T07:56:45;20.40;71.10
75126;DHT22;63699;45.442;11.510;2022-12-29T07:59:11;20.40;70.90
75126;DHT22;63699;45.442;11.510;2022-12-29T08:01:37;20.40;71.20
75126;DHT22;63699;45.442;11.510;2022-12-29T08:04:03;20.40;71.80
75126;DHT22;63699;45.442;11.510;2022-12-29T08:06:29;20.40;72.50
75126;DHT22;63699;45.442;11.510;2022-12-29T08:08:56;20.40;72.50
75126;DHT22;63699;45.442;11.510;2022-12-29T08:11:23;20.50;72.30
75126;DHT22;63699;45.442;11.510;2022-12-29T08:13:49;20.50;72.50
75126;DHT22;63699;45.442;11.510;2022-12-29T08:16:15;20.50;72.70
75126;DHT22;63699;45.442;11.510;2022-12-29T08:18:40;20.50;72.80
75126;DHT22;63699;45.442;11.510;2022-12-29T08:21:06;20.50;72.80
75126;DHT22;63699;45.442;11.510;2022-12-29T08:23:32;20.50;72.80
75126;DHT22;63699;45.442;11.510;2022-12-29T08:26:04;20.50;72.80
75126;DHT22;63699;45.442;11.510;2022-12-29T08:28:30;20.50;72.50
75126;DHT22;63699;45.442;11.510;2022-12-29T08:31:00;20.50;72.70
75126;DHT22;63699;45.442;11.510;2022-12-29T08:33:27;20.50;72.70
75126;DHT22;63699;45.442;11.510;2022-12-29T08:36:01;20.50;72.80
75126;DHT22;63699;45.442;11.510;2022-12-29T08:38:28;20.50;72.50
75126;DHT22;63699;45.442;11.510;2022-12-29T08:40:54;20.50;72.40
75126;DHT22;63699;45.442;11.510;2022-12-29T08:43:20;20.50;72.50
75126;DHT22;63699;45.442;11.510;2022-12-29T08:45:46;20.50;72.50
75126;DHT22;63699;45.442;11.510;2022-12-29T08:48:11;20.50;72.60
75126;DHT22;63699;45.442;11.510;2022-12-29T08:50:37;20.50;72.10
75126;DHT22;63699;45.442;11.510;2022-12-29T08:53:03;20.50;72.40
75126;DHT22;63699;45.442;11.510;2022-12-29T08:55:28;20.60;72.30
75126;DHT22;63699;45.442;11.510;2022-12-29T08:57:54;20.50;72.30
75126;DHT22;63699;45.442;11.510;2022-12-29T09:00:20;20.60;72.60
75126;DHT22;63699;45.442;11.510;2022-12-29T09:02:46;20.50;72.40
75126;DHT22;63699;45.442;11.510;2022-12-29T09:05:12;20.50;72.10
75126;DHT22;63699;45.442;11.510;2022-12-29T09:07:37;20.50;72.20
75126;DHT22;63699;45.442;11.510;2022-12-29T09:10:04;20.50;72.30
75126;DHT22;63699;45.442;11.510;2022-12-29T09:12:30;20.50;72.00
75126;DHT22;63699;45.442;11.510;2022-12-29T09:14:55;20.50;71.90
75126;DHT22;63699;45.442;11.510;2022-12-29T09:17:21;20.50;71.90
75126;DHT22;63699;45.442;11.510;2022-12-29T09:20:05;20.50;71.90
75126;DHT22;63699;45.442;11.510;2022-12-29T09:22:32;20.50;71.90
75126;DHT22;63699;45.442;11.510;2022-12-29T09:24:57;20.50;72.10
75126;DHT22;63699;45.442;11.510;2022-12-29T09:27:23;20.50;72.20
75126;DHT22;63699;45.442;11.510;2022-12-29T09:29:48;20.50;72.10
75126;DHT22;63699;45.442;11.510;2022-12-29T09:32:14;20.50;71.80
75126;DHT22;63699;45.442;11.510;2022-12-29T09:34:40;20.50;72.30
75126;DHT22;63699;45.442;11.510;2022-12-29T09:37:05;20.50;72.20
75126;DHT22;63699;45.442;11.510;2022-12-29T09:39:31;20.50;72.40
75126;DHT22;63699;45.442;11.510;2022-12-29T09:42:29;20.50;72.30
75126;DHT22;63699;45.442;11.510;2022-12-29T09:47:45;20.50;72.00
75126;DHT22;63699;45.442;11.510;2022-12-29T09:50:22;20.50;71.90
75126;DHT22;63699;45.442;11.510;2022-12-29T09:53:16;20.50;71.80
75126;DHT22;63699;45.442;11.510;2022-12-29T09:55:53;20.60;71.60
75126;DHT22;63699;45.442;11.510;2022-12-29T09:58:29;20.50;71.40
75126;DHT22;63699;45.442;11.510;2022-12-29T10:01:05;20.60;71.30
75126;DHT22;63699;45.442;11.510;2022-12-29T10:03:52;20.50;71.30
75126;DHT22;63699;45.442;11.510;2022-12-29T10:06:50;20.50;71.30
75126;DHT22;63699;45.442;11.510;2022-12-29T10:09:25;20.50;71.30
75126;DHT22;63699;45.442;11.510;2022-12-29T10:23:26;20.50;71.40
75126;DHT22;63699;45.442;11.510;2022-12-29T10:25:55;20.50;71.50
75126;DHT22;63699;45.442;11.510;2022-12-29T10:30:58;20.50;71.70
75126;DHT22;63699;45.442;11.510;2022-12-29T10:33:34;20.50;71.30
75126;DHT22;63699;45.442;11.510;2022-12-29T10:36:14;20.50;71.40
75126;DHT22;63699;45.442;11.510;2022-12-29T10:38:58;20.50;71.50
75126;DHT22;63699;45.442;11.510;2022-12-29T10:41:46;20.50;71.60
75126;DHT22;63699;45.442;11.510;2022-12-29T10:44:16;20.50;71.50
75126;DHT22;63699;45.442;11.510;2022-12-29T10:46:43;20.60;71.40
75126;DHT22;63699;45.442;11.510;2022-12-29T10:49:18;20.60;71.40
75126;DHT22;63699;45.442;11.510;2022-12-29T10:51:46;20.50;71.30
75126;DHT22;63699;45.442;11.510;2022-12-29T10:59:25;20.50;71.70
75126;DHT22;63699;45.442;11.510;2022-12-29T11:07:28;20.50;72.00
75126;DHT22;63699;45.442;11.510;2022-12-29T11:09:55;20.50;72.30
75126;DHT22;63699;45.442;11.510;2022-12-29T11:12:31;20.50;72.20
75126;DHT22;63699;45.442;11.510;2022-12-29T11:15:15;20.50;72.10
75126;DHT22;63699;45.442;11.510;2022-12-29T11:20:30;20.50;72.70
75126;DHT22;63699;45.442;11.510;2022-12-29T11:22:56;20.50;72.80
75126;DHT22;63699;45.442;11.510;2022-12-29T11:25:21;20.60;72.80
75126;DHT22;63699;45.442;11.510;2022-12-29T11:28:01;20.60;72.90
75126;DHT22;63699;45.442;11.510;2022-12-29T11:30:29;20.60;72.60
75126;DHT22;63699;45.442;11.510;2022-12-29T11:32:56;20.60;73.10
75126;DHT22;63699;45.442;11.510;2022-12-29T11:38:00;20.60;73.10
75126;DHT22;63699;45.442;11.510;2022-12-29T11:40:27;20.60;72.80
75126;DHT22;63699;45.442;11.510;2022-12-29T11:43:00;20.60;73.00
75126;DHT22;63699;45.442;11.510;2022-12-29T11:45:31;20.60;72.90
75126;DHT22;63699;45.442;11.510;2022-12-29T11:48:01;20.60;73.00
75126;DHT22;63699;45.442;11.510;2022-12-29T11:50:33;20.50;72.90
75126;DHT22;63699;45.442;11.510;2022-12-29T11:53:17;20.50;72.70
75126;DHT22;63699;45.442;11.510;2022-12-29T11:55:57;20.50;72.80
75126;DHT22;63699;45.442;11.510;2022-12-29T11:58:33;20.50;72.60
75126;DHT22;63699;45.442;11.510;2022-12-29T12:03:32;20.60;73.00
75126;DHT22;63699;45.442;11.510;2022-12-29T12:06:04;20.60;73.10
75126;DHT22;63699;45.442;11.510;2022-12-29T12:11:16;20.60;72.50
75126;DHT22;63699;45.442;11.510;2022-12-29T12:16:31;20.60;72.90
75126;DHT22;63699;45.442;11.510;2022-12-29T12:21:42;20.60;72.80
75126;DHT22;63699;45.442;11.510;2022-12-29T12:26:55;20.60;72.50
75126;DHT22;63699;45.442;11.510;2022-12-29T12:32:19;20.60;72.80
75126;DHT22;63699;45.442;11.510;2022-12-29T12:34:47;20.60;72.90
75126;DHT22;63699;45.442;11.510;2022-12-29T12:42:33;20.60;72.70
75126;DHT22;63699;45.442;11.510;2022-12-29T12:47:54;20.60;73.10
75126;DHT22;63699;45.442;11.510;2022-12-29T12:50:36;20.60;72.80
75126;DHT22;63699;45.442;11.510;2022-12-29T12:56:03;20.50;72.80
75126;DHT22;63699;45.442;11.510;2022-12-29T13:04:04;20.50;72.90
75126;DHT22;63699;45.442;11.510;2022-12-29T13:06:49;20.50;73.00
75126;DHT22;63699;45.442;11.510;2022-12-29T13:12:25;20.50;73.30
75126;DHT22;63699;45.442;11.510;2022-12-29T13:20:47;20.50;73.50
75126;DHT22;63699;45.442;11.510;2022-12-29T13:25:54;20.50;73.50
75126;DHT22;63699;45.442;11.510;2022-12-29T13:28:30;20.50;73.50
75126;DHT22;63699;45.442;11.510;2022-12-29T13:30:58;20.50;73.00
75126;DHT22;63699;45.442;11.510;2022-12-29T13:33:32;20.50;73.40
75126;DHT22;63699;45.442;11.510;2022-12-29T13:36:16;20.50;73.10
75126;DHT22;63699;45.442;11.510;2022-12-29T13:38:50;20.50;73.50
75126;DHT22;63699;45.442;11.510;2022-12-29T13:41:25;20.50;73.50
75126;DHT22;63699;45.442;11.510;2022-12-29T13:43:51;20.60;73.40
75126;DHT22;63699;45.442;11.510;2022-12-29T13:46:29;20.50;73.30
75126;DHT22;63699;45.442;11.510;2022-12-29T13:49:18;20.50;73.40
75126;DHT22;63699;45.442;11.510;2022-12-29T13:52:32;20.50;73.40
75126;DHT22;63699;45.442;11.510;2022-12-29T13:55:29;20.50;73.40
75126;DHT22;63699;45.442;11.510;2022-12-29T13:58:12;20.50;73.50
75126;DHT22;63699;45.442;11.510;2022-12-29T14:00:47;20.50;73.40
75126;DHT22;63699;45.442;11.510;2022-12-29T14:03:28;20.50;73.10
75126;DHT22;63699;45.442;11.510;2022-12-29T14:06:21;20.50;72.90
75126;DHT22;63699;45.442;11.510;2022-12-29T14:08:55;20.50;73.00
75126;DHT22;63699;45.442;11.510;2022-12-29T14:11:28;20.40;72.90
75126;DHT22;63699;45.442;11.510;2022-12-29T14:13:56;20.50;72.80
75126;DHT22;63699;45.442;11.510;2022-12-29T14:16:31;20.40;72.70
75126;DHT22;63699;45.442;11.510;2022-12-29T14:19:13;20.40;72.70
75126;DHT22;63699;45.442;11.510;2022-12-29T14:21:49;20.40;73.00
75126;DHT22;63699;45.442;11.510;2022-12-29T14:34:52;20.50;72.90
75126;DHT22;63699;45.442;11.510;2022-12-29T14:40:24;20.40;72.80
75126;DHT22;63699;45.442;11.510;2022-12-29T14:42:53;20.40;72.70
75126;DHT22;63699;45.442;11.510;2022-12-29T14:45:25;20.40;72.60
75126;DHT22;63699;45.442;11.510;2022-12-29T14:47:52;20.40;72.70
75126;DHT22;63699;45.442;11.510;2022-12-29T14:52:54;20.40;72.80
75126;DHT22;63699;45.442;11.510;2022-12-29T14:55:53;20.40;72.70
75126;DHT22;63699;45.442;11.510;2022-12-29T15:00:55;20.40;72.80
75126;DHT22;63699;45.442;11.510;2022-12-29T15:03:45;20.40;72.60
75126;DHT22;63699;45.442;11.510;2022-12-29T15:06:13;20.40;72.70
75126;DHT22;63699;45.442;11.510;2022-12-29T15:11:24;20.40;72.80
75126;DHT22;63699;45.442;11.510;2022-12-29T15:13:56;20.40;72.80
75126;DHT22;63699;45.442;11.510;2022-12-29T15:16:25;20.40;72.70
75126;DHT22;63699;45.442;11.510;2022-12-29T15:18:52;20.30;72.70
75126;DHT22;63699;45.442;11.510;2022-12-29T15:21:24;20.40;72.70
75126;DHT22;63699;45.442;11.510;2022-12-29T15:23:50;20.40;72.70
75126;DHT22;63699;45.442;11.510;2022-12-29T15:26:16;20.30;72.70
75126;DHT22;63699;45.442;11.510;2022-12-29T15:28:48;20.30;72.70
75126;DHT22;63699;45.442;11.510;2022-12-29T15:31:20;20.30;72.70
75126;DHT22;63699;45.442;11.510;2022-12-29T15:33:48;20.30;72.60
75126;DHT22;63699;45.442;11.510;2022-12-29T15:36:26;20.30;72.70
75126;DHT22;63699;45.442;11.510;2022-12-29T15:38:52;20.30;72.70
75126;DHT22;63699;45.442;11.510;2022-12-29T15:44:17;20.30;72.70
75126;DHT22;63699;45.442;11.510;2022-12-29T15:46:45;20.30;72.70
75126;DHT22;63699;45.442;11.510;2022-12-29T15:49:13;20.30;72.80
75126;DHT22;63699;45.442;11.510;2022-12-29T15:51:39;20.30;72.80
75126;DHT22;63699;45.442;11.510;2022-12-29T15:54:06;20.30;72.80
75126;DHT22;63699;45.442;11.510;2022-12-29T15:56:39;20.30;72.90
75126;DHT22;63699;45.442;11.510;2022-12-29T15:59:32;20.30;72.90
75126;DHT22;63699;45.442;11.510;2022-12-29T16:02:00;20.30;73.20
75126;DHT22;63699;45.442;11.510;2022-12-29T16:04:29;20.30;72.80
75126;DHT22;63699;45.442;11.510;2022-12-29T16:07:01;20.30;72.90
75126;DHT22;63699;45.442;11.510;2022-12-29T16:12:03;20.30;73.00
75126;DHT22;63699;45.442;11.510;2022-12-29T16:14:42;20.30;72.90
75126;DHT22;63699;45.442;11.510;2022-12-29T16:17:13;20.30;73.00
75126;DHT22;63699;45.442;11.510;2022-12-29T16:19:42;20.30;73.00
75126;DHT22;63699;45.442;11.510;2022-12-29T16:24:48;20.30;73.00
75126;DHT22;63699;45.442;11.510;2022-12-29T16:27:22;20.30;72.90
75126;DHT22;63699;45.442;11.510;2022-12-29T16:29:53;20.30;72.90
75126;DHT22;63699;45.442;11.510;2022-12-29T16:35:22;20.30;72.90
75126;DHT22;63699;45.442;11.510;2022-12-29T16:38:06;20.30;73.00
75126;DHT22;63699;45.442;11.510;2022-12-29T16:40:32;20.30;72.80
75126;DHT22;63699;45.442;11.510;2022-12-29T16:43:02;20.30;72.90
75126;DHT22;63699;45.442;11.510;2022-12-29T16:50:33;20.30;73.00
75126;DHT22;63699;45.442;11.510;2022-12-29T16:53:00;20.30;73.10
75126;DHT22;63699;45.442;11.510;2022-12-29T16:55:26;20.30;72.90
75126;DHT22;63699;45.442;11.510;2022-12-29T16:57:53;20.30;72.90
75126;DHT22;63699;45.442;11.510;2022-12-29T17:00:23;20.30;72.90
75126;DHT22;63699;45.442;11.510;2022-12-29T17:02:51;20.30;72.80
75126;DHT22;63699;45.442;11.510;2022-12-29T17:05:19;20.30;72.90
75126;DHT22;63699;45.442;11.510;2022-12-29T17:07:46;20.30;73.00
75126;DHT22;63699;45.442;11.510;2022-12-29T17:10:12;20.30;72.90
75126;DHT22;63699;45.442;11.510;2022-12-29T17:12:43;20.30;72.90
75126;DHT22;63699;45.442;11.510;2022-12-29T17:15:26;20.30;72.90
75126;DHT22;63699;45.442;11.510;2022-12-29T17:17:58;20.30;72.90
75126;DHT22;63699;45.442;11.510;2022-12-29T17:20:27;20.30;72.80
75126;DHT22;63699;45.442;11.510;2022-12-29T17:22:54;20.30;72.80
75126;DHT22;63699;45.442;11.510;2022-12-29T17:25:32;20.30;72.90
75126;DHT22;63699;45.442;11.510;2022-12-29T17:28:13;20.30;72.90
75126;DHT22;63699;45.442;11.510;2022-12-29T17:30:43;20.30;72.90
75126;DHT22;63699;45.442;11.510;2022-12-29T17:33:13;20.30;72.80
75126;DHT22;63699;45.442;11.510;2022-12-29T17:35:39;20.30;72.80
75126;DHT22;63699;45.442;11.510;2022-12-29T17:38:17;20.30;72.80
75126;DHT22;63699;45.442;11.510;2022-12-29T17:40:43;20.30;72.80
75126;DHT22;63699;45.442;11.510;2022-12-29T17:43:12;20.30;72.90
75126;DHT22;63699;45.442;11.510;2022-12-29T17:45:39;20.30;72.60
75126;DHT22;63699;45.442;11.510;2022-12-29T17:48:11;20.30;72.80
75126;DHT22;63699;45.442;11.510;2022-12-29T17:50:37;20.30;72.50
75126;DHT22;63699;45.442;11.510;2022-12-29T17:53:10;20.30;73.00
75126;DHT22;63699;45.442;11.510;2022-12-29T17:55:37;20.30;72.60
75126;DHT22;63699;45.442;11.510;2022-12-29T18:00:42;20.40;72.60
75126;DHT22;63699;45.442;11.510;2022-12-29T18:03:14;20.40;72.70
75126;DHT22;63699;45.442;11.510;2022-12-29T18:05:40;20.50;72.90
75126;DHT22;63699;45.442;11.510;2022-12-29T18:08:09;20.50;72.90